Summit Village, NV

11:26 PM PDT on March 29, 2017 (GMT -0700)
| | Change Station
Active Advisory: Wind Advisory

Elev -9999 ft 0.00 °N, 0.00 °E | Updated 7 minutes ago

Partly Cloudy
Partly Cloudy
°F
Feels Like °F
N
Wind Variable Wind from North
Gusts mph

Today
High -- | Low -- °F
--% Chance of Precip.
Yesterday
High -- | Low -- °F
Precip. -- in
Pressure 30.09 in
Visibility 10.0 miles
Clouds Few 10000 ft
Dew Point Not available.
Humidity Not available.
Rainfall --
Snow Depth Not available.
6:48 AM 7:20 PM
Waxing Crescent, 6% visible
METAR KTVL 300553Z AUTO 21005KT 10SM FEW100 07/03 A3018 RMK AO2 SLP190 T00720028 10144 20067 58004
Pressure 30.09 in
Visibility 10.0 miles
Clouds Few 10000 ft
Dew Point Not available.
Humidity Not available.
Rainfall --
Snow Depth Not available.
6:48 AM 7:20 PM
Waxing Crescent, 6% visible
METAR KTVL 300553Z AUTO 21005KT 10SM FEW100 07/03 A3018 RMK AO2 SLP190 T00720028 10144 20067 58004

Get Your Daily Forecast Email!

Thanks for signing up!

Be on the lookout for a verification email in your inbox.

You'll start receiving severe weather alerts in your inbox..

×

10-Day Weather Forecast

Almanac

Astronomy

Mar. 29, 2017 Rise Set
Actual Time
Civil Twilight
Nautical Twilight
Astronomical Twilight
Moon
Length of Visible Light
Length of Day
Tomorrow will be .
, % of the Moon is Illuminated

Today's Extremes

State Highs State Lows

Community

WunderPhotos

Upload Photos

1,962,540 photos uploaded!

WunderBlog® & News

Nearby

Air Quality

  Air Quality AQ Index Pollutant
Not available.

Snow Depth

Station Depth Elevation

Earthquake Activity

City Distance Mag. Time & Date
Minimum magnitude displayed is 2.5.

Earthquake Activity

City Distance Mag. Time & Date
Minimum magnitude displayed is 2.5.

Coastal Water Temperatures

Place Temperature

Stations

Nearby Weather Stations

Station Location Temp. Windchill Dew Point Humidity Wind Precip. Elev Updated Type
                   

Watches & Warnings

Wind Advisory
Issued: 2:52 PM PDT Mar. 29, 2017 – National Weather Service

... Wind Advisory remains in effect from 5 am to 8 PM PDT
Thursday...

* timing: winds will increase through the day Thursday.

* Winds: west 20 to 30 mph with gusts to 45 mph shifting
northwest by early afternoon behind a passing cold front.

* Waves on lake tahoe: 2 to 4 feet. Highest waves on eastern
and Southern Shores.

* Impacts: Crosswinds may result in travel impacts for high
profile vehicles and areas of wind shear for aviation. Small
boats, kayaks and paddle boards will be prone to capsizing
and should remain off lake waters until conditions improve.

Precautionary/preparedness actions...

Now is the time to secure loose outdoor items such as patio
furniture and trash cans before winds increase which could blow
these items away. The best thing to do is prepare ahead of time
by making sure you have extra food and water on hand, flashlights
with spare batteries and/or candles in the event of a power
outage.



Http://weather.Gov/Reno